sensor_id;sensor_type;location;lat;lon;timestamp;pressure;altitude;pressure_sealevel;temperature;humidity
61345;BME280;47216;42.656;23.232;2023-09-08T00:01:14;94377.06;;;20.36;60.91
61345;BME280;47216;42.656;23.232;2023-09-08T00:03:42;94372.94;;;20.30;60.52
61345;BME280;47216;42.656;23.232;2023-09-08T00:06:09;94377.75;;;20.28;60.55
61345;BME280;47216;42.656;23.232;2023-09-08T00:08:35;94382.94;;;20.33;61.11
61345;BME280;47216;42.656;23.232;2023-09-08T00:11:02;94367.66;;;20.30;61.13
61345;BME280;47216;42.656;23.232;2023-09-08T00:13:30;94368.25;;;20.27;60.44
61345;BME280;47216;42.656;23.232;2023-09-08T00:15:56;94362.94;;;20.27;60.69
61345;BME280;47216;42.656;23.232;2023-09-08T00:18:23;94360.00;;;20.28;59.52
61345;BME280;47216;42.656;23.232;2023-09-08T00:20:51;94364.00;;;20.26;57.20
61345;BME280;47216;42.656;23.232;2023-09-08T00:23:18;94360.31;;;20.27;56.22
61345;BME280;47216;42.656;23.232;2023-09-08T00:25:45;94368.44;;;20.30;56.21
61345;BME280;47216;42.656;23.232;2023-09-08T00:28:11;94362.94;;;20.27;56.81
61345;BME280;47216;42.656;23.232;2023-09-08T00:30:40;94357.53;;;20.32;56.94
61345;BME280;47216;42.656;23.232;2023-09-08T00:33:06;94359.91;;;20.33;56.27
61345;BME280;47216;42.656;23.232;2023-09-08T00:35:34;94359.59;;;20.35;55.46
61345;BME280;47216;42.656;23.232;2023-09-08T00:38:02;94358.22;;;20.38;55.66
61345;BME280;47216;42.656;23.232;2023-09-08T00:43:51;94365.50;;;20.32;55.45
61345;BME280;47216;42.656;23.232;2023-09-08T00:46:18;94358.03;;;20.34;55.35
61345;BME280;47216;42.656;23.232;2023-09-08T00:48:45;94363.63;;;20.32;55.62
61345;BME280;47216;42.656;23.232;2023-09-08T00:51:12;94360.19;;;20.32;55.65
61345;BME280;47216;42.656;23.232;2023-09-08T00:53:41;94356.28;;;20.29;55.52
61345;BME280;47216;42.656;23.232;2023-09-08T00:56:09;94357.06;;;20.30;55.65
61345;BME280;47216;42.656;23.232;2023-09-08T00:58:36;94353.13;;;20.27;55.59
61345;BME280;47216;42.656;23.232;2023-09-08T01:01:03;94355.09;;;20.22;55.83
61345;BME280;47216;42.656;23.232;2023-09-08T01:03:31;94358.81;;;20.34;55.59
61345;BME280;47216;42.656;23.232;2023-09-08T01:05:58;94353.03;;;20.19;55.86
61345;BME280;47216;42.656;23.232;2023-09-08T01:08:25;94352.44;;;20.22;55.49
61345;BME280;47216;42.656;23.232;2023-09-08T01:10:54;94361.56;;;20.29;55.84
61345;BME280;47216;42.656;23.232;2023-09-08T01:13:21;94352.63;;;20.39;55.39
61345;BME280;47216;42.656;23.232;2023-09-08T01:15:49;94346.34;;;20.35;55.58
61345;BME280;47216;42.656;23.232;2023-09-08T01:18:15;94360.97;;;20.32;55.64
61345;BME280;47216;42.656;23.232;2023-09-08T01:20:55;94358.03;;;20.34;55.73
61345;BME280;47216;42.656;23.232;2023-09-08T01:23:37;94359.41;;;20.31;55.72
61345;BME280;47216;42.656;23.232;2023-09-08T01:26:10;94352.03;;;20.28;56.09
61345;BME280;47216;42.656;23.232;2023-09-08T01:28:39;94354.50;;;20.25;56.29
61345;BME280;47216;42.656;23.232;2023-09-08T01:31:07;94344.91;;;20.15;56.94
61345;BME280;47216;42.656;23.232;2023-09-08T01:33:34;94350.38;;;20.19;56.69
61345;BME280;47216;42.656;23.232;2023-09-08T01:36:01;94337.03;;;20.24;56.37
61345;BME280;47216;42.656;23.232;2023-09-08T01:38:27;94343.91;;;20.25;56.68
61345;BME280;47216;42.656;23.232;2023-09-08T01:40:55;94341.84;;;20.22;56.73
61345;BME280;47216;42.656;23.232;2023-09-08T01:43:23;94332.44;;;20.15;57.17
61345;BME280;47216;42.656;23.232;2023-09-08T01:45:50;94339.19;;;20.08;57.22
61345;BME280;47216;42.656;23.232;2023-09-08T01:48:17;94335.09;;;20.15;57.52
61345;BME280;47216;42.656;23.232;2023-09-08T01:50:43;94329.81;;;20.15;57.54
61345;BME280;47216;42.656;23.232;2023-09-08T01:53:11;94330.19;;;20.09;57.53
61345;BME280;47216;42.656;23.232;2023-09-08T01:55:38;94329.91;;;20.10;57.72
61345;BME280;47216;42.656;23.232;2023-09-08T01:58:04;94330.38;;;20.12;58.05
61345;BME280;47216;42.656;23.232;2023-09-08T02:00:33;94332.13;;;20.03;58.68
61345;BME280;47216;42.656;23.232;2023-09-08T02:02:59;94329.59;;;19.98;59.07
61345;BME280;47216;42.656;23.232;2023-09-08T02:05:26;94331.84;;;19.91;59.36
61345;BME280;47216;42.656;23.232;2023-09-08T02:07:53;94331.66;;;19.87;59.31
61345;BME280;47216;42.656;23.232;2023-09-08T02:10:21;94328.44;;;19.90;59.19
61345;BME280;47216;42.656;23.232;2023-09-08T02:12:47;94333.91;;;19.94;59.39
61345;BME280;47216;42.656;23.232;2023-09-08T02:15:14;94337.75;;;19.88;59.64
61345;BME280;47216;42.656;23.232;2023-09-08T02:17:44;94330.28;;;19.90;59.73
61345;BME280;47216;42.656;23.232;2023-09-08T02:20:11;94334.88;;;19.84;59.99
61345;BME280;47216;42.656;23.232;2023-09-08T02:22:38;94329.97;;;19.78;60.62
61345;BME280;47216;42.656;23.232;2023-09-08T02:25:05;94333.31;;;19.83;60.48
61345;BME280;47216;42.656;23.232;2023-09-08T02:27:32;94328.59;;;19.66;61.53
61345;BME280;47216;42.656;23.232;2023-09-08T02:29:59;94314.88;;;19.64;61.50
61345;BME280;47216;42.656;23.232;2023-09-08T02:32:26;94320.72;;;19.61;61.84
61345;BME280;47216;42.656;23.232;2023-09-08T02:34:54;94313.00;;;19.65;62.13
61345;BME280;47216;42.656;23.232;2023-09-08T02:37:21;94312.59;;;19.58;62.15
61345;BME280;47216;42.656;23.232;2023-09-08T02:39:47;94313.97;;;19.55;62.31
61345;BME280;47216;42.656;23.232;2023-09-08T02:42:14;94312.59;;;19.58;62.46
61345;BME280;47216;42.656;23.232;2023-09-08T02:44:41;94314.03;;;19.50;62.63
61345;BME280;47216;42.656;23.232;2023-09-08T02:47:08;94310.31;;;19.37;63.37
61345;BME280;47216;42.656;23.232;2023-09-08T02:49:35;94312.22;;;19.31;63.73
61345;BME280;47216;42.656;23.232;2023-09-08T02:52:04;94320.66;;;19.34;63.62
61345;BME280;47216;42.656;23.232;2023-09-08T02:54:30;94319.69;;;19.29;64.13
61345;BME280;47216;42.656;23.232;2023-09-08T02:56:57;94327.63;;;19.29;64.47
61345;BME280;47216;42.656;23.232;2023-09-08T02:59:24;94326.31;;;19.27;64.53
61345;BME280;47216;42.656;23.232;2023-09-08T03:01:50;94326.53;;;19.30;65.11
61345;BME280;47216;42.656;23.232;2023-09-08T03:04:17;94324.78;;;19.26;65.18
61345;BME280;47216;42.656;23.232;2023-09-08T03:06:44;94324.41;;;19.33;65.49
61345;BME280;47216;42.656;23.232;2023-09-08T03:09:12;94332.75;;;19.40;65.31
61345;BME280;47216;42.656;23.232;2023-09-08T03:11:39;94338.63;;;19.37;65.75
61345;BME280;47216;42.656;23.232;2023-09-08T03:14:05;94337.13;;;19.30;66.01
61345;BME280;47216;42.656;23.232;2023-09-08T03:16:32;94337.53;;;19.38;66.00
61345;BME280;47216;42.656;23.232;2023-09-08T03:18:59;94331.25;;;19.34;65.91
61345;BME280;47216;42.656;23.232;2023-09-08T03:21:25;94326.34;;;19.41;66.10
61345;BME280;47216;42.656;23.232;2023-09-08T03:23:52;94334.38;;;19.36;66.37
61345;BME280;47216;42.656;23.232;2023-09-08T03:26:20;94333.59;;;19.35;66.41
61345;BME280;47216;42.656;23.232;2023-09-08T03:28:47;94331.75;;;19.36;66.71
61345;BME280;47216;42.656;23.232;2023-09-08T03:31:14;94338.41;;;19.33;66.70
61345;BME280;47216;42.656;23.232;2023-09-08T03:33:40;94342.19;;;19.27;66.54
61345;BME280;47216;42.656;23.232;2023-09-08T03:36:08;94346.47;;;19.09;67.19
61345;BME280;47216;42.656;23.232;2023-09-08T03:38:34;94353.88;;;19.07;67.28
61345;BME280;47216;42.656;23.232;2023-09-08T03:41:02;94353.75;;;18.98;67.56
61345;BME280;47216;42.656;23.232;2023-09-08T03:43:30;94364.91;;;18.95;67.48
61345;BME280;47216;42.656;23.232;2023-09-08T03:45:57;94361.44;;;18.95;67.50
61345;BME280;47216;42.656;23.232;2023-09-08T03:48:23;94361.03;;;18.87;67.79
61345;BME280;47216;42.656;23.232;2023-09-08T03:50:50;94357.34;;;18.88;68.05
61345;BME280;47216;42.656;23.232;2023-09-08T03:53:17;94357.91;;;18.85;67.98
61345;BME280;47216;42.656;23.232;2023-09-08T03:55:44;94358.69;;;18.86;67.98
61345;BME280;47216;42.656;23.232;2023-09-08T03:58:10;94359.75;;;18.85;67.95
61345;BME280;47216;42.656;23.232;2023-09-08T04:00:38;94355.91;;;18.77;68.59
61345;BME280;47216;42.656;23.232;2023-09-08T04:03:05;94354.31;;;18.76;68.48
61345;BME280;47216;42.656;23.232;2023-09-08T04:05:32;94354.53;;;18.80;68.56
61345;BME280;47216;42.656;23.232;2023-09-08T04:07:59;94353.59;;;18.89;68.49
61345;BME280;47216;42.656;23.232;2023-09-08T04:10:26;94349.59;;;18.92;68.58
61345;BME280;47216;42.656;23.232;2023-09-08T04:12:53;94355.09;;;18.96;68.56
61345;BME280;47216;42.656;23.232;2023-09-08T04:15:20;94357.16;;;18.99;68.83
61345;BME280;47216;42.656;23.232;2023-09-08T04:17:48;94353.47;;;19.00;68.69
61345;BME280;47216;42.656;23.232;2023-09-08T04:20:15;94358.94;;;19.03;68.66
61345;BME280;47216;42.656;23.232;2023-09-08T04:22:42;94355.03;;;19.01;68.68
61345;BME280;47216;42.656;23.232;2023-09-08T04:25:09;94358.25;;;18.98;68.73
61345;BME280;47216;42.656;23.232;2023-09-08T04:27:36;94354.03;;;18.97;68.65
61345;BME280;47216;42.656;23.232;2023-09-08T04:30:04;94361.44;;;18.95;69.14
61345;BME280;47216;42.656;23.232;2023-09-08T04:32:31;94359.63;;;18.95;68.98
61345;BME280;47216;42.656;23.232;2023-09-08T04:34:59;94371.47;;;18.98;69.26
61345;BME280;47216;42.656;23.232;2023-09-08T04:37:26;94362.19;;;19.00;69.10
61345;BME280;47216;42.656;23.232;2023-09-08T04:39:52;94361.91;;;19.02;69.24
61345;BME280;47216;42.656;23.232;2023-09-08T04:42:19;94368.75;;;19.03;69.34
61345;BME280;47216;42.656;23.232;2023-09-08T04:44:46;94366.59;;;19.05;69.32
61345;BME280;47216;42.656;23.232;2023-09-08T04:47:13;94365.59;;;19.01;69.50
61345;BME280;47216;42.656;23.232;2023-09-08T04:49:39;94364.59;;;18.97;69.52
61345;BME280;47216;42.656;23.232;2023-09-08T04:52:07;94373.03;;;18.99;69.66
61345;BME280;47216;42.656;23.232;2023-09-08T04:54:36;94369.53;;;19.03;69.59
61345;BME280;47216;42.656;23.232;2023-09-08T04:57:03;94370.31;;;19.04;69.47
61345;BME280;47216;42.656;23.232;2023-09-08T04:59:30;94360.53;;;19.04;69.47
61345;BME280;47216;42.656;23.232;2023-09-08T05:01:58;94364.97;;;19.09;69.49
61345;BME280;47216;42.656;23.232;2023-09-08T05:04:24;94372.31;;;19.12;69.76
61345;BME280;47216;42.656;23.232;2023-09-08T05:06:51;94368.59;;;19.13;69.79
61345;BME280;47216;42.656;23.232;2023-09-08T05:09:19;94365.38;;;19.16;69.62
61345;BME280;47216;42.656;23.232;2023-09-08T05:11:46;94360.59;;;19.18;69.82
61345;BME280;47216;42.656;23.232;2023-09-08T05:14:13;94362.06;;;19.24;69.49
61345;BME280;47216;42.656;23.232;2023-09-08T05:16:39;94358.28;;;19.30;69.40
61345;BME280;47216;42.656;23.232;2023-09-08T05:19:11;94358.50;;;19.34;69.34
61345;BME280;47216;42.656;23.232;2023-09-08T05:21:38;94360.28;;;19.39;69.19
61345;BME280;47216;42.656;23.232;2023-09-08T05:24:05;94356.16;;;19.46;68.63
61345;BME280;47216;42.656;23.232;2023-09-08T05:26:35;94354.22;;;19.52;67.94
61345;BME280;47216;42.656;23.232;2023-09-08T05:29:03;94358.44;;;19.53;67.31
61345;BME280;47216;42.656;23.232;2023-09-08T05:31:29;94360.50;;;19.56;65.65
61345;BME280;47216;42.656;23.232;2023-09-08T05:33:56;94361.00;;;19.58;65.35
61345;BME280;47216;42.656;23.232;2023-09-08T05:36:23;94356.78;;;19.57;64.73
61345;BME280;47216;42.656;23.232;2023-09-08T05:38:50;94363.47;;;19.68;64.27
61345;BME280;47216;42.656;23.232;2023-09-08T05:41:16;94370.16;;;19.80;63.36
61345;BME280;47216;42.656;23.232;2023-09-08T05:43:44;94370.97;;;19.80;62.47
61345;BME280;47216;42.656;23.232;2023-09-08T05:46:11;94368.72;;;19.87;62.26
61345;BME280;47216;42.656;23.232;2023-09-08T05:48:39;94367.44;;;19.85;62.50
61345;BME280;47216;42.656;23.232;2023-09-08T05:51:06;94365.59;;;19.99;62.13
61345;BME280;47216;42.656;23.232;2023-09-08T05:53:33;94373.34;;;20.09;62.13
61345;BME280;47216;42.656;23.232;2023-09-08T05:56:00;94374.59;;;20.12;62.48
61345;BME280;47216;42.656;23.232;2023-09-08T05:58:27;94368.44;;;20.17;61.43
61345;BME280;47216;42.656;23.232;2023-09-08T06:00:56;94371.84;;;20.17;59.45
61345;BME280;47216;42.656;23.232;2023-09-08T06:03:23;94378.84;;;20.27;58.77
61345;BME280;47216;42.656;23.232;2023-09-08T06:05:49;94373.16;;;20.33;58.35
61345;BME280;47216;42.656;23.232;2023-09-08T06:08:16;94370.50;;;20.33;57.29
61345;BME280;47216;42.656;23.232;2023-09-08T06:10:43;94374.50;;;20.45;56.61
61345;BME280;47216;42.656;23.232;2023-09-08T06:13:09;94383.63;;;20.52;56.70
61345;BME280;47216;42.656;23.232;2023-09-08T06:15:36;94365.47;;;20.46;56.70
61345;BME280;47216;42.656;23.232;2023-09-08T06:18:05;94373.59;;;20.49;56.82
61345;BME280;47216;42.656;23.232;2023-09-08T06:20:32;94376.38;;;20.44;56.00
61345;BME280;47216;42.656;23.232;2023-09-08T06:22:59;94371.84;;;20.59;56.54
61345;BME280;47216;42.656;23.232;2023-09-08T06:25:26;94385.59;;;20.61;56.20
61345;BME280;47216;42.656;23.232;2023-09-08T06:27:53;94389.44;;;20.68;55.39
61345;BME280;47216;42.656;23.232;2023-09-08T06:30:20;94379.59;;;20.69;55.29
61345;BME280;47216;42.656;23.232;2023-09-08T06:32:47;94394.03;;;20.63;55.21
61345;BME280;47216;42.656;23.232;2023-09-08T06:35:15;94403.25;;;20.65;55.43
61345;BME280;47216;42.656;23.232;2023-09-08T06:37:42;94403.16;;;20.70;54.99
61345;BME280;47216;42.656;23.232;2023-09-08T06:40:09;94399.03;;;20.78;55.20
61345;BME280;47216;42.656;23.232;2023-09-08T06:42:36;94407.06;;;20.87;53.96
61345;BME280;47216;42.656;23.232;2023-09-08T06:45:03;94404.28;;;20.92;52.90
61345;BME280;47216;42.656;23.232;2023-09-08T06:47:31;94407.47;;;20.80;53.04
61345;BME280;47216;42.656;23.232;2023-09-08T06:49:58;94395.06;;;20.89;53.04
61345;BME280;47216;42.656;23.232;2023-09-08T06:52:26;94408.22;;;20.94;52.86
61345;BME280;47216;42.656;23.232;2023-09-08T06:54:52;94409.06;;;21.04;53.17
61345;BME280;47216;42.656;23.232;2023-09-08T06:57:19;94412.28;;;21.14;52.20
61345;BME280;47216;42.656;23.232;2023-09-08T06:59:46;94408.91;;;21.23;51.69
61345;BME280;47216;42.656;23.232;2023-09-08T07:02:13;94407.66;;;21.20;51.90
61345;BME280;47216;42.656;23.232;2023-09-08T07:04:39;94411.34;;;21.33;52.16
61345;BME280;47216;42.656;23.232;2023-09-08T07:07:06;94403.56;;;21.36;51.56
61345;BME280;47216;42.656;23.232;2023-09-08T07:09:34;94407.44;;;21.53;50.69
61345;BME280;47216;42.656;23.232;2023-09-08T07:12:02;94402.97;;;21.62;51.15
61345;BME280;47216;42.656;23.232;2023-09-08T07:14:30;94409.94;;;21.80;50.99
61345;BME280;47216;42.656;23.232;2023-09-08T07:16:57;94406.03;;;21.78;51.01
61345;BME280;47216;42.656;23.232;2023-09-08T07:19:23;94406.09;;;21.87;50.69
61345;BME280;47216;42.656;23.232;2023-09-08T07:21:50;94405.81;;;21.97;49.69
61345;BME280;47216;42.656;23.232;2023-09-08T07:24:17;94406.16;;;22.04;49.46
61345;BME280;47216;42.656;23.232;2023-09-08T07:26:45;94402.25;;;22.01;50.09
61345;BME280;47216;42.656;23.232;2023-09-08T07:29:11;94403.84;;;22.11;49.51
61345;BME280;47216;42.656;23.232;2023-09-08T07:31:39;94398.91;;;22.18;49.82
61345;BME280;47216;42.656;23.232;2023-09-08T07:34:05;94400.53;;;22.28;49.31
61345;BME280;47216;42.656;23.232;2023-09-08T07:36:32;94403.03;;;22.33;49.17
61345;BME280;47216;42.656;23.232;2023-09-08T07:38:59;94391.19;;;22.48;49.13
61345;BME280;47216;42.656;23.232;2023-09-08T07:41:26;94391.66;;;22.50;49.41
61345;BME280;47216;42.656;23.232;2023-09-08T07:43:54;94408.31;;;22.64;49.21
61345;BME280;47216;42.656;23.232;2023-09-08T07:46:21;94400.94;;;22.61;48.06
61345;BME280;47216;42.656;23.232;2023-09-08T07:48:47;94402.34;;;22.68;48.59
61345;BME280;47216;42.656;23.232;2023-09-08T07:51:14;94400.78;;;22.66;48.48
61345;BME280;47216;42.656;23.232;2023-09-08T07:53:41;94400.81;;;22.84;47.64
61345;BME280;47216;42.656;23.232;2023-09-08T07:56:07;94397.72;;;22.91;47.69
61345;BME280;47216;42.656;23.232;2023-09-08T07:58:34;94399.78;;;23.02;47.02
61345;BME280;47216;42.656;23.232;2023-09-08T08:01:02;94394.13;;;23.13;48.02
61345;BME280;47216;42.656;23.232;2023-09-08T08:03:29;94395.56;;;23.19;47.26
61345;BME280;47216;42.656;23.232;2023-09-08T08:05:56;94405.09;;;23.28;48.14
61345;BME280;47216;42.656;23.232;2023-09-08T08:08:23;94395.88;;;23.26;46.89
61345;BME280;47216;42.656;23.232;2023-09-08T08:10:50;94394.78;;;23.27;46.72
61345;BME280;47216;42.656;23.232;2023-09-08T08:13:16;94402.28;;;23.42;46.50
61345;BME280;47216;42.656;23.232;2023-09-08T08:15:46;94392.09;;;23.36;46.14
61345;BME280;47216;42.656;23.232;2023-09-08T08:18:15;94399.31;;;23.35;46.58
61345;BME280;47216;42.656;23.232;2023-09-08T08:20:42;94401.19;;;23.26;47.11
61345;BME280;47216;42.656;23.232;2023-09-08T08:23:08;94395.72;;;23.22;46.96
61345;BME280;47216;42.656;23.232;2023-09-08T08:25:35;94388.03;;;23.21;46.20
61345;BME280;47216;42.656;23.232;2023-09-08T08:28:02;94391.63;;;23.34;46.37
61345;BME280;47216;42.656;23.232;2023-09-08T08:30:29;94390.84;;;23.33;46.71
61345;BME280;47216;42.656;23.232;2023-09-08T08:32:56;94391.47;;;23.30;47.26
61345;BME280;47216;42.656;23.232;2023-09-08T08:35:24;94390.06;;;23.24;46.19
61345;BME280;47216;42.656;23.232;2023-09-08T08:37:50;94392.25;;;23.22;46.60
61345;BME280;47216;42.656;23.232;2023-09-08T08:40:17;94388.50;;;23.40;46.49
61345;BME280;47216;42.656;23.232;2023-09-08T08:42:44;94380.19;;;23.51;46.22
61345;BME280;47216;42.656;23.232;2023-09-08T08:45:11;94383.47;;;23.47;45.60
61345;BME280;47216;42.656;23.232;2023-09-08T08:47:39;94385.66;;;23.63;45.72
61345;BME280;47216;42.656;23.232;2023-09-08T08:50:08;94388.31;;;23.72;45.84
61345;BME280;47216;42.656;23.232;2023-09-08T08:52:38;94378.56;;;23.84;44.30
61345;BME280;47216;42.656;23.232;2023-09-08T08:55:06;94388.41;;;24.01;45.38
61345;BME280;47216;42.656;23.232;2023-09-08T08:57:34;94374.59;;;24.08;43.87
61345;BME280;47216;42.656;23.232;2023-09-08T09:00:01;94363.31;;;24.02;44.14
61345;BME280;47216;42.656;23.232;2023-09-08T09:02:34;94367.34;;;24.17;43.01
61345;BME280;47216;42.656;23.232;2023-09-08T09:05:03;94366.22;;;24.18;43.21
61345;BME280;47216;42.656;23.232;2023-09-08T09:07:30;94379.88;;;24.17;43.68
61345;BME280;47216;42.656;23.232;2023-09-08T09:09:59;94378.09;;;23.91;42.63
61345;BME280;47216;42.656;23.232;2023-09-08T09:12:26;94377.19;;;23.87;43.57
61345;BME280;47216;42.656;23.232;2023-09-08T09:14:53;94368.72;;;23.85;43.87
61345;BME280;47216;42.656;23.232;2023-09-08T09:17:20;94370.72;;;23.97;44.41
61345;BME280;47216;42.656;23.232;2023-09-08T09:19:47;94373.75;;;23.78;43.67
61345;BME280;47216;42.656;23.232;2023-09-08T09:22:13;94369.22;;;23.78;43.83
61345;BME280;47216;42.656;23.232;2023-09-08T09:24:41;94369.66;;;23.80;44.08
61345;BME280;47216;42.656;23.232;2023-09-08T09:27:10;94368.28;;;23.74;43.22
61345;BME280;47216;42.656;23.232;2023-09-08T09:29:44;94365.59;;;23.74;43.70
61345;BME280;47216;42.656;23.232;2023-09-08T09:32:12;94370.63;;;23.76;44.19
61345;BME280;47216;42.656;23.232;2023-09-08T09:34:47;94367.78;;;23.81;43.25
61345;BME280;47216;42.656;23.232;2023-09-08T09:37:15;94370.31;;;23.60;44.04
61345;BME280;47216;42.656;23.232;2023-09-08T09:39:41;94373.91;;;23.64;43.44
61345;BME280;47216;42.656;23.232;2023-09-08T09:42:10;94371.56;;;23.62;43.59
61345;BME280;47216;42.656;23.232;2023-09-08T09:44:37;94370.63;;;23.58;44.38
61345;BME280;47216;42.656;23.232;2023-09-08T09:47:04;94358.25;;;23.62;43.16
61345;BME280;47216;42.656;23.232;2023-09-08T09:49:32;94359.31;;;23.61;43.60
61345;BME280;47216;42.656;23.232;2023-09-08T09:52:07;94363.44;;;23.50;44.01
61345;BME280;47216;42.656;23.232;2023-09-08T09:54:34;94364.66;;;23.61;43.89
61345;BME280;47216;42.656;23.232;2023-09-08T09:57:01;94346.97;;;23.74;44.66
61345;BME280;47216;42.656;23.232;2023-09-08T09:59:30;94355.41;;;23.76;44.13
61345;BME280;47216;42.656;23.232;2023-09-08T10:01:57;94345.69;;;23.80;44.47
61345;BME280;47216;42.656;23.232;2023-09-08T10:04:24;94346.13;;;23.91;43.67
61345;BME280;47216;42.656;23.232;2023-09-08T10:06:51;94337.16;;;23.96;44.02
61345;BME280;47216;42.656;23.232;2023-09-08T10:09:18;94341.41;;;23.97;44.91
61345;BME280;47216;42.656;23.232;2023-09-08T10:11:47;94338.53;;;24.10;44.56
61345;BME280;47216;42.656;23.232;2023-09-08T10:14:15;94335.97;;;24.23;44.46
61345;BME280;47216;42.656;23.232;2023-09-08T10:16:44;94336.72;;;24.23;44.25
61345;BME280;47216;42.656;23.232;2023-09-08T10:19:15;94332.59;;;24.35;43.67
61345;BME280;47216;42.656;23.232;2023-09-08T10:21:45;94331.63;;;24.39;43.65
61345;BME280;47216;42.656;23.232;2023-09-08T10:24:18;94329.13;;;24.43;44.05
61345;BME280;47216;42.656;23.232;2023-09-08T10:27:00;94321.78;;;24.61;44.16
61345;BME280;47216;42.656;23.232;2023-09-08T10:29:30;94319.41;;;24.68;44.40
61345;BME280;47216;42.656;23.232;2023-09-08T10:31:59;94327.06;;;24.90;43.29
61345;BME280;47216;42.656;23.232;2023-09-08T10:34:27;94316.66;;;24.98;42.91
61345;BME280;47216;42.656;23.232;2023-09-08T10:36:55;94315.50;;;25.07;42.87
61345;BME280;47216;42.656;23.232;2023-09-08T10:39:33;94311.97;;;25.15;42.85
61345;BME280;47216;42.656;23.232;2023-09-08T10:42:23;94302.47;;;25.27;43.77
61345;BME280;47216;42.656;23.232;2023-09-08T10:45:01;94305.84;;;25.36;43.27
61345;BME280;47216;42.656;23.232;2023-09-08T10:47:41;94298.50;;;25.45;42.51
61345;BME280;47216;42.656;23.232;2023-09-08T10:50:15;94291.66;;;25.56;43.13
61345;BME280;47216;42.656;23.232;2023-09-08T10:52:42;94309.03;;;25.63;42.12
61345;BME280;47216;42.656;23.232;2023-09-08T10:55:10;94306.53;;;25.57;42.01
61345;BME280;47216;42.656;23.232;2023-09-08T10:57:37;94300.72;;;25.43;42.57
61345;BME280;47216;42.656;23.232;2023-09-08T11:00:05;94296.97;;;25.44;42.54
61345;BME280;47216;42.656;23.232;2023-09-08T11:02:39;94301.25;;;25.36;42.20
61345;BME280;47216;42.656;23.232;2023-09-08T11:05:08;94298.69;;;25.28;42.93
61345;BME280;47216;42.656;23.232;2023-09-08T11:07:35;94288.66;;;25.25;43.27
61345;BME280;47216;42.656;23.232;2023-09-08T11:10:03;94283.69;;;25.35;42.51
61345;BME280;47216;42.656;23.232;2023-09-08T11:12:31;94273.47;;;25.38;42.22
61345;BME280;47216;42.656;23.232;2023-09-08T11:14:58;94272.13;;;25.44;43.45
61345;BME280;47216;42.656;23.232;2023-09-08T11:17:26;94274.47;;;25.45;42.96
61345;BME280;47216;42.656;23.232;2023-09-08T11:20:04;94283.41;;;25.49;42.51
61345;BME280;47216;42.656;23.232;2023-09-08T11:22:34;94277.38;;;25.52;42.83
61345;BME280;47216;42.656;23.232;2023-09-08T11:25:01;94272.25;;;25.47;42.90
61345;BME280;47216;42.656;23.232;2023-09-08T11:27:30;94273.50;;;25.50;42.44
61345;BME280;47216;42.656;23.232;2023-09-08T11:29:57;94274.94;;;25.47;43.03
61345;BME280;47216;42.656;23.232;2023-09-08T11:32:24;94278.06;;;25.49;42.63
61345;BME280;47216;42.656;23.232;2023-09-08T11:34:51;94274.41;;;25.54;42.72
61345;BME280;47216;42.656;23.232;2023-09-08T11:37:20;94282.97;;;25.60;42.65
61345;BME280;47216;42.656;23.232;2023-09-08T11:39:47;94280.72;;;25.49;42.83
61345;BME280;47216;42.656;23.232;2023-09-08T11:42:15;94281.72;;;25.45;42.62
61345;BME280;47216;42.656;23.232;2023-09-08T11:44:42;94270.13;;;25.41;42.45
61345;BME280;47216;42.656;23.232;2023-09-08T11:47:10;94269.28;;;25.49;42.89
61345;BME280;47216;42.656;23.232;2023-09-08T11:49:37;94270.38;;;25.48;42.90
61345;BME280;47216;42.656;23.232;2023-09-08T11:52:05;94275.16;;;25.54;42.51
61345;BME280;47216;42.656;23.232;2023-09-08T11:54:34;94268.50;;;25.61;42.55
61345;BME280;47216;42.656;23.232;2023-09-08T11:57:04;94265.72;;;25.57;42.57
61345;BME280;47216;42.656;23.232;2023-09-08T11:59:34;94273.19;;;25.64;43.21
61345;BME280;47216;42.656;23.232;2023-09-08T12:02:01;94273.31;;;25.67;42.11
61345;BME280;47216;42.656;23.232;2023-09-08T12:04:28;94277.84;;;25.67;42.58
61345;BME280;47216;42.656;23.232;2023-09-08T12:06:55;94270.50;;;25.76;43.07
61345;BME280;47216;42.656;23.232;2023-09-08T12:09:22;94277.00;;;25.87;42.36
61345;BME280;47216;42.656;23.232;2023-09-08T12:11:50;94275.66;;;25.81;42.39
61345;BME280;47216;42.656;23.232;2023-09-08T12:14:16;94266.44;;;25.91;41.91
61345;BME280;47216;42.656;23.232;2023-09-08T12:16:43;94272.09;;;26.02;41.47
61345;BME280;47216;42.656;23.232;2023-09-08T12:19:28;94267.66;;;25.81;41.76
61345;BME280;47216;42.656;23.232;2023-09-08T12:21:56;94261.63;;;25.84;42.05
61345;BME280;47216;42.656;23.232;2023-09-08T12:24:47;94258.19;;;25.84;42.17
61345;BME280;47216;42.656;23.232;2023-09-08T12:27:16;94254.53;;;26.01;42.02
61345;BME280;47216;42.656;23.232;2023-09-08T12:29:52;94249.94;;;26.01;41.64
61345;BME280;47216;42.656;23.232;2023-09-08T12:32:19;94249.28;;;25.92;41.85
61345;BME280;47216;42.656;23.232;2023-09-08T12:34:46;94261.31;;;25.98;41.72
61345;BME280;47216;42.656;23.232;2023-09-08T12:37:13;94254.41;;;26.22;41.28
61345;BME280;47216;42.656;23.232;2023-09-08T12:39:40;94246.69;;;26.20;41.38
61345;BME280;47216;42.656;23.232;2023-09-08T12:42:06;94246.81;;;26.24;40.87
61345;BME280;47216;42.656;23.232;2023-09-08T12:44:34;94240.78;;;26.27;41.99
61345;BME280;47216;42.656;23.232;2023-09-08T12:47:01;94237.78;;;26.28;41.18
61345;BME280;47216;42.656;23.232;2023-09-08T12:49:28;94233.41;;;26.36;40.85
61345;BME280;47216;42.656;23.232;2023-09-08T12:51:55;94233.97;;;26.41;40.76
61345;BME280;47216;42.656;23.232;2023-09-08T12:54:21;94229.50;;;26.58;40.37
61345;BME280;47216;42.656;23.232;2023-09-08T12:56:48;94222.00;;;26.64;39.59